createdAt,value
2018-08-12T00:00:26.653Z,15.42
2018-08-12T00:02:57.804Z,15.38
2018-08-12T00:05:26.564Z,15.19
2018-08-12T00:07:55.482Z,15.10
2018-08-12T00:10:24.979Z,15.07
2018-08-12T00:12:53.624Z,15.04
2018-08-12T00:15:23.297Z,15.08
2018-08-12T00:17:52.037Z,15.11
2018-08-12T00:20:22.630Z,14.98
2018-08-12T00:22:51.784Z,14.93
2018-08-12T00:25:23.019Z,14.71
2018-08-12T00:27:52.374Z,14.66
2018-08-12T00:30:21.907Z,14.61
2018-08-12T00:32:50.583Z,14.39
2018-08-12T00:35:20.079Z,14.44
2018-08-12T00:37:48.837Z,14.44
2018-08-12T00:40:18.006Z,14.31
2018-08-12T00:42:48.213Z,14.19
2018-08-12T00:45:19.757Z,14.04
2018-08-12T00:47:48.864Z,13.96
2018-08-12T00:50:18.594Z,14.14
2018-08-12T00:52:47.601Z,13.97
2018-08-12T00:55:17.755Z,14.02
2018-08-12T00:57:47.615Z,14.06
2018-08-12T01:00:18.552Z,13.97
2018-08-12T01:02:47.820Z,13.78
2018-08-12T01:05:17.702Z,13.63
2018-08-12T01:07:47.400Z,13.80
2018-08-12T01:10:16.794Z,13.65
2018-08-12T01:12:45.748Z,13.58
2018-08-12T01:15:16.937Z,13.63
2018-08-12T01:17:45.941Z,13.55
2018-08-12T01:20:21.242Z,13.37
2018-08-12T01:22:50.265Z,13.36
2018-08-12T01:25:19.748Z,13.44
2018-08-12T01:27:48.458Z,13.31
2018-08-12T01:30:19.196Z,13.36
2018-08-12T01:32:48.584Z,13.50
2018-08-12T01:35:17.798Z,13.43
2018-08-12T01:37:47.383Z,13.36
2018-08-12T01:40:17.197Z,13.33
2018-08-12T01:42:46.445Z,13.29
2018-08-12T01:45:17.026Z,13.27
2018-08-12T01:47:45.881Z,13.22
2018-08-12T01:50:16.088Z,13.15
2018-08-12T01:52:44.795Z,13.19
2018-08-12T01:55:13.612Z,13.13
2018-08-12T01:57:42.367Z,13.17
2018-08-12T02:00:20.806Z,13.13
2018-08-12T02:02:50.535Z,13.07
2018-08-12T02:05:19.823Z,12.99
2018-08-12T02:07:48.903Z,12.98
2018-08-12T02:10:17.670Z,13.01
2018-08-12T02:12:46.374Z,12.87
2018-08-12T02:15:15.010Z,12.91
2018-08-12T02:17:43.745Z,12.72
2018-08-12T02:20:13.064Z,12.64
2018-08-12T02:22:42.293Z,12.68
2018-08-12T02:25:11.936Z,12.63
2018-08-12T02:27:40.534Z,12.76
2018-08-12T02:30:11.236Z,12.91
2018-08-12T02:32:40.505Z,12.86
2018-08-12T02:35:09.768Z,12.81
2018-08-12T02:37:39.415Z,12.82
2018-08-12T02:40:09.426Z,12.76
2018-08-12T02:42:38.159Z,12.66
2018-08-12T02:45:10.681Z,12.60
2018-08-12T02:47:39.366Z,12.58
2018-08-12T02:50:08.233Z,12.52
2018-08-12T02:52:37.364Z,12.53
2018-08-12T02:55:07.596Z,12.58
2018-08-12T02:57:36.407Z,12.44
2018-08-12T03:00:06.554Z,12.49
2018-08-12T03:02:35.310Z,12.75
2018-08-12T03:05:04.449Z,12.73
2018-08-12T03:07:33.374Z,12.57
2018-08-12T03:10:01.941Z,12.51
2018-08-12T03:12:30.941Z,12.64
2018-08-12T03:14:59.786Z,12.63
2018-08-12T03:17:28.710Z,12.58
2018-08-12T03:19:57.803Z,12.52
2018-08-12T03:22:26.636Z,12.46
2018-08-12T03:24:55.220Z,12.45
2018-08-12T03:27:24.084Z,12.33
2018-08-12T03:29:52.969Z,12.43
2018-08-12T03:32:21.965Z,12.50
2018-08-12T03:34:50.536Z,12.48
2018-08-12T03:37:19.583Z,12.42
2018-08-12T03:39:48.503Z,12.32
2018-08-12T03:42:17.254Z,12.32
2018-08-12T03:44:46.305Z,12.52
2018-08-12T03:47:14.920Z,12.40
2018-08-12T03:49:43.639Z,12.16
2018-08-12T03:52:12.365Z,12.27
2018-08-12T03:54:41.797Z,12.17
2018-08-12T03:57:10.443Z,12.22
2018-08-12T03:59:39.061Z,12.15
2018-08-12T04:05:03.658Z,12.12
2018-08-12T04:07:32.390Z,12.25
2018-08-12T04:10:01.172Z,12.40
2018-08-12T04:12:29.821Z,12.38
2018-08-12T04:14:58.607Z,12.40
2018-08-12T04:17:27.451Z,12.33
2018-08-12T04:19:56.345Z,12.41
2018-08-12T04:22:25.175Z,12.40
2018-08-12T04:24:53.825Z,12.42
2018-08-12T04:27:22.624Z,12.48
2018-08-12T04:29:51.411Z,12.40
2018-08-12T04:32:20.237Z,12.38
2018-08-12T04:34:48.943Z,12.53
2018-08-12T04:37:17.976Z,12.54
2018-08-12T04:39:46.872Z,12.56
2018-08-12T04:42:15.481Z,12.62
2018-08-12T04:44:44.240Z,12.62
2018-08-12T04:47:13.053Z,12.70
2018-08-12T04:49:41.736Z,12.65
2018-08-12T04:52:10.648Z,12.79
2018-08-12T04:54:39.378Z,12.93
2018-08-12T04:57:07.997Z,13.00
2018-08-12T04:59:36.948Z,13.13
2018-08-12T05:02:06.053Z,13.24
2018-08-12T05:04:34.978Z,13.22
2018-08-12T05:07:03.835Z,13.36
2018-08-12T05:09:32.591Z,13.41
2018-08-12T05:12:01.473Z,13.39
2018-08-12T05:14:30.292Z,13.62
2018-08-12T05:16:59.218Z,13.83
2018-08-12T05:19:28.127Z,13.80
2018-08-12T05:21:57.004Z,13.82
2018-08-12T05:24:25.840Z,13.92
2018-08-12T05:26:54.471Z,14.15
2018-08-12T05:29:23.152Z,14.49
2018-08-12T05:31:51.888Z,14.51
2018-08-12T05:34:20.638Z,14.66
2018-08-12T05:36:49.470Z,14.68
2018-08-12T05:39:18.534Z,14.59
2018-08-12T05:41:47.211Z,14.83
2018-08-12T05:44:15.847Z,14.92
2018-08-12T05:46:44.569Z,15.09
2018-08-12T05:49:13.323Z,15.25
2018-08-12T05:51:42.190Z,15.13
2018-08-12T05:54:10.949Z,15.31
2018-08-12T05:56:39.786Z,15.49
2018-08-12T05:59:08.684Z,15.52
2018-08-12T06:01:37.593Z,15.62
2018-08-12T06:04:06.468Z,15.83
2018-08-12T06:06:35.583Z,16.03
2018-08-12T06:09:06.905Z,16.25
2018-08-12T06:11:36.165Z,16.27
2018-08-12T06:14:06.205Z,16.43
2018-08-12T06:16:35.044Z,16.37
2018-08-12T06:19:03.905Z,16.43
2018-08-12T06:21:32.525Z,16.64
2018-08-12T06:24:01.152Z,16.78
2018-08-12T06:26:29.836Z,16.90
2018-08-12T06:28:58.893Z,17.07
2018-08-12T06:31:27.544Z,17.12
2018-08-12T06:33:56.306Z,17.20
2018-08-12T06:36:25.086Z,17.28
2018-08-12T06:38:53.780Z,17.48
2018-08-12T06:41:23.163Z,17.44
2018-08-12T06:43:52.725Z,17.58
2018-08-12T06:46:22.709Z,17.74
2018-08-12T06:48:51.419Z,17.63
2018-08-12T06:51:20.167Z,17.78
2018-08-12T06:53:48.912Z,17.84
2018-08-12T06:56:18.214Z,18.03
2018-08-12T06:58:46.984Z,18.33
2018-08-12T07:01:15.664Z,18.35
2018-08-12T07:03:44.349Z,18.31
2018-08-12T07:06:13.190Z,18.46
2018-08-12T07:08:41.780Z,18.54
2018-08-12T07:11:10.860Z,18.69
2018-08-12T07:13:39.439Z,18.69
2018-08-12T07:16:08.729Z,18.71
2018-08-12T07:18:37.692Z,18.94
2018-08-12T07:21:06.724Z,19.04
2018-08-12T07:23:35.404Z,18.99
2018-08-12T07:26:04.065Z,19.22
2018-08-12T07:28:33.200Z,19.13
2018-08-12T07:31:02.600Z,19.27
2018-08-12T07:33:31.767Z,19.38
2018-08-12T07:36:01.155Z,19.18
2018-08-12T07:38:29.956Z,19.45
2018-08-12T07:40:58.585Z,19.80
2018-08-12T07:43:28.888Z,19.65
2018-08-12T07:45:57.647Z,19.93
2018-08-12T07:48:26.483Z,19.91
2018-08-12T07:50:55.537Z,19.72
2018-08-12T07:53:24.659Z,20.10
2018-08-12T07:55:54.072Z,20.26
2018-08-12T07:58:23.322Z,19.92
2018-08-12T08:00:53.037Z,20.35
2018-08-12T08:03:21.879Z,20.22
2018-08-12T08:05:50.640Z,20.25
2018-08-12T08:08:19.373Z,20.60
2018-08-12T08:10:48.138Z,20.55
2018-08-12T08:13:17.176Z,20.67
2018-08-12T08:15:45.877Z,20.78
2018-08-12T08:18:14.690Z,20.86
2018-08-12T08:20:43.356Z,20.71
2018-08-12T08:23:12.287Z,20.75
2018-08-12T08:25:42.328Z,20.93
2018-08-12T08:28:11.157Z,21.01
2018-08-12T08:30:40.056Z,21.24
2018-08-12T08:33:08.944Z,21.18
2018-08-12T08:35:38.301Z,21.09
2018-08-12T08:38:07.798Z,21.32
2018-08-12T08:40:37.395Z,21.37
2018-08-12T08:43:06.323Z,21.55
2018-08-12T08:45:35.021Z,21.50
2018-08-12T08:48:04.060Z,21.35
2018-08-12T08:50:33.220Z,21.42
2018-08-12T08:53:01.839Z,21.53
2018-08-12T08:55:31.406Z,21.59
2018-08-12T08:58:00.192Z,21.89
2018-08-12T09:00:29.036Z,22.01
2018-08-12T09:02:59.985Z,21.83
2018-08-12T09:05:28.675Z,21.69
2018-08-12T09:07:58.402Z,22.15
2018-08-12T09:10:27.388Z,22.36
2018-08-12T09:12:56.031Z,22.42
2018-08-12T09:15:27.850Z,22.33
2018-08-12T09:17:56.759Z,22.20
2018-08-12T09:20:25.412Z,22.50
2018-08-12T09:22:54.475Z,22.22
2018-08-12T09:25:23.236Z,22.40
2018-08-12T09:27:52.744Z,22.57
2018-08-12T09:30:22.489Z,22.36
2018-08-12T09:32:51.536Z,22.54
2018-08-12T09:35:21.636Z,22.42
2018-08-12T09:37:50.492Z,22.89
2018-08-12T09:40:23.561Z,23.26
2018-08-12T09:42:53.506Z,23.06
2018-08-12T09:45:22.911Z,23.17
2018-08-12T09:47:52.025Z,23.28
2018-08-12T09:50:21.364Z,23.36
2018-08-12T09:52:55.034Z,23.30
2018-08-12T09:55:25.319Z,23.37
2018-08-12T09:57:54.184Z,23.52
2018-08-12T10:00:28.736Z,23.63
2018-08-12T10:02:58.503Z,23.77
2018-08-12T10:05:27.980Z,24.23
2018-08-12T10:07:57.730Z,24.15
2018-08-12T10:10:27.172Z,24.31
2018-08-12T10:12:55.836Z,24.10
2018-08-12T10:15:24.613Z,24.34
2018-08-12T10:17:56.557Z,24.40
2018-08-12T10:20:27.312Z,24.48
2018-08-12T10:22:56.220Z,24.13
2018-08-12T10:25:25.184Z,24.30
2018-08-12T10:27:54.092Z,23.91
2018-08-12T10:30:22.970Z,24.82
2018-08-12T10:32:52.093Z,24.38
2018-08-12T10:35:27.687Z,24.33
2018-08-12T10:37:56.606Z,24.14
2018-08-12T10:40:25.226Z,25.23
2018-08-12T10:42:53.924Z,25.24
2018-08-12T10:45:23.905Z,25.88
2018-08-12T10:47:52.507Z,25.78
2018-08-12T10:50:21.479Z,26.55
2018-08-12T10:52:50.924Z,26.87
2018-08-12T10:55:22.219Z,26.25
2018-08-12T10:57:52.453Z,25.70
2018-08-12T11:00:25.078Z,26.51
2018-08-12T11:02:54.174Z,27.39
2018-08-12T11:05:23.060Z,27.28
2018-08-12T11:07:59.531Z,28.21
2018-08-12T11:10:29.134Z,27.01
2018-08-12T11:12:58.511Z,28.01
2018-08-12T11:15:27.441Z,28.83
2018-08-12T11:17:56.199Z,29.60
2018-08-12T11:20:25.096Z,28.97
2018-08-12T11:22:53.824Z,29.13
2018-08-12T11:25:22.812Z,29.49
2018-08-12T11:27:51.546Z,29.13
2018-08-12T11:30:21.328Z,29.05
2018-08-12T11:32:50.074Z,29.44
2018-08-12T11:35:19.107Z,29.62
2018-08-12T11:37:48.564Z,29.32
2018-08-12T11:40:17.527Z,30.14
2018-08-12T11:42:46.993Z,30.52
2018-08-12T11:45:18.743Z,31.04
2018-08-12T11:47:49.094Z,31.54
2018-08-12T11:50:18.595Z,30.84
2018-08-12T11:52:47.618Z,30.28
2018-08-12T11:55:18.064Z,29.79
2018-08-12T11:57:47.447Z,30.72
2018-08-12T12:00:19.332Z,30.69
2018-08-12T12:02:50.248Z,30.52
2018-08-12T12:05:19.088Z,31.68
2018-08-12T12:07:48.121Z,31.61
2018-08-12T12:10:18.805Z,31.56
2018-08-12T12:12:48.644Z,32.21
2018-08-12T12:15:17.775Z,32.52
2018-08-12T12:17:46.897Z,31.52
2018-08-12T12:20:16.457Z,32.22
2018-08-12T12:22:45.964Z,31.05
2018-08-12T12:25:16.232Z,31.59
2018-08-12T12:27:44.864Z,30.76
2018-08-12T12:30:18.054Z,31.98
2018-08-12T12:32:47.573Z,31.68
2018-08-12T12:35:16.247Z,32.33
2018-08-12T12:37:45.384Z,32.59
2018-08-12T12:40:15.819Z,31.13
2018-08-12T12:42:45.340Z,31.92
2018-08-12T12:45:14.853Z,32.59
2018-08-12T12:47:44.296Z,32.74
2018-08-12T12:50:17.185Z,32.03
2018-08-12T12:52:47.183Z,30.94
2018-08-12T12:55:15.900Z,31.77
2018-08-12T12:57:45.120Z,31.87
2018-08-12T13:00:15.975Z,32.34
2018-08-12T13:02:45.613Z,32.83
2018-08-12T13:05:16.385Z,33.05
2018-08-12T13:07:46.549Z,33.08
2018-08-12T13:10:16.966Z,33.68
2018-08-12T13:12:46.735Z,33.83
2018-08-12T13:15:16.459Z,32.84
2018-08-12T13:17:45.756Z,33.88
2018-08-12T13:20:18.058Z,34.27
2018-08-12T13:22:47.607Z,33.52
2018-08-12T13:25:18.131Z,34.41
2018-08-12T13:27:47.032Z,34.69
2018-08-12T13:30:17.018Z,34.25
2018-08-12T13:32:46.649Z,34.32
2018-08-12T13:35:17.588Z,35.18
2018-08-12T13:37:46.690Z,33.93
2018-08-12T13:40:16.586Z,34.72
2018-08-12T13:42:46.178Z,36.28
2018-08-12T13:45:15.421Z,35.95
2018-08-12T13:47:45.430Z,36.22
2018-08-12T13:50:18.679Z,35.84
2018-08-12T13:52:47.929Z,35.40
2018-08-12T13:55:17.125Z,35.60
2018-08-12T13:57:46.207Z,36.78
2018-08-12T14:00:16.597Z,35.33
2018-08-12T14:02:45.431Z,35.83
2018-08-12T14:05:15.961Z,35.20
2018-08-12T14:07:46.076Z,35.76
2018-08-12T14:10:15.064Z,36.97
2018-08-12T14:12:44.921Z,35.99
2018-08-12T14:15:16.477Z,35.69
2018-08-12T14:17:46.354Z,36.65
2018-08-12T14:20:16.704Z,36.63
2018-08-12T14:22:45.336Z,35.19
2018-08-12T14:25:14.601Z,34.37
2018-08-12T14:27:44.070Z,34.31
2018-08-12T14:30:16.187Z,35.35
2018-08-12T14:32:45.519Z,34.52
2018-08-12T14:35:14.446Z,35.53
2018-08-12T14:37:43.212Z,35.18
2018-08-12T14:40:12.935Z,34.64
2018-08-12T14:42:42.149Z,31.18
2018-08-12T14:45:13.137Z,30.39
2018-08-12T14:47:43.738Z,30.46
2018-08-12T14:50:16.379Z,34.60
2018-08-12T14:52:45.064Z,34.70
2018-08-12T14:55:14.447Z,34.95
2018-08-12T14:57:44.129Z,34.53
2018-08-12T15:00:16.518Z,33.60
2018-08-12T15:02:47.516Z,32.08
2018-08-12T15:05:17.114Z,30.89
2018-08-12T15:07:46.205Z,29.84
2018-08-12T15:10:15.055Z,29.18
2018-08-12T15:12:44.138Z,29.58
2018-08-12T15:15:14.139Z,29.75
2018-08-12T15:17:44.216Z,29.28
2018-08-12T15:20:13.757Z,28.66
2018-08-12T15:22:42.933Z,28.76
2018-08-12T15:25:14.596Z,28.86
2018-08-12T15:27:43.396Z,28.64
2018-08-12T15:30:12.351Z,28.59
2018-08-12T15:32:41.297Z,28.44
2018-08-12T15:35:10.668Z,28.44
2018-08-12T15:37:39.844Z,28.17
2018-08-12T15:40:12.983Z,28.30
2018-08-12T15:42:43.232Z,27.86
2018-08-12T15:45:13.960Z,28.14
2018-08-12T15:47:43.495Z,28.07
2018-08-12T15:50:12.777Z,27.97
2018-08-12T15:52:43.275Z,28.05
2018-08-12T15:55:12.306Z,27.66
2018-08-12T15:57:41.656Z,27.86
2018-08-12T16:00:15.459Z,27.65
2018-08-12T16:02:44.682Z,27.59
2018-08-12T16:05:20.672Z,27.36
2018-08-12T16:07:50.074Z,27.34
2018-08-12T16:10:21.386Z,27.06
2018-08-12T16:12:51.396Z,27.12
2018-08-12T16:15:20.507Z,27.06
2018-08-12T16:17:49.734Z,27.12
2018-08-12T16:20:18.806Z,27.15
2018-08-12T16:22:48.438Z,26.82
2018-08-12T16:25:18.772Z,26.74
2018-08-12T16:27:47.515Z,26.77
2018-08-12T16:30:17.712Z,26.77
2018-08-12T16:32:46.674Z,26.66
2018-08-12T16:35:16.464Z,26.63
2018-08-12T16:37:46.053Z,26.61
2018-08-12T16:40:18.257Z,26.50
2018-08-12T16:42:48.055Z,26.58
2018-08-12T16:45:17.578Z,26.49
2018-08-12T16:47:46.665Z,26.52
2018-08-12T16:50:15.547Z,26.38
2018-08-12T16:52:45.030Z,26.36
2018-08-12T16:55:15.389Z,26.25
2018-08-12T16:57:45.080Z,26.25
2018-08-12T17:00:15.556Z,26.26
2018-08-12T17:02:45.038Z,26.37
2018-08-12T17:05:17.880Z,26.08
2018-08-12T17:07:46.709Z,25.93
2018-08-12T17:10:19.966Z,25.90
2018-08-12T17:12:48.819Z,26.04
2018-08-12T17:15:19.685Z,26.07
2018-08-12T17:17:49.455Z,25.89
2018-08-12T17:20:20.545Z,25.57
2018-08-12T17:22:49.570Z,25.33
2018-08-12T17:25:18.404Z,25.17
2018-08-12T17:27:47.263Z,25.19
2018-08-12T17:30:17.202Z,24.81
2018-08-12T17:32:45.919Z,24.58
2018-08-12T17:35:14.707Z,24.42
2018-08-12T17:37:44.538Z,24.40
2018-08-12T17:40:14.559Z,24.29
2018-08-12T17:42:43.709Z,24.04
2018-08-12T17:45:13.687Z,23.85
2018-08-12T17:47:44.160Z,23.73
2018-08-12T17:50:16.263Z,23.59
2018-08-12T17:52:44.900Z,23.53
2018-08-12T17:55:14.194Z,23.58
2018-08-12T17:57:43.027Z,23.22
2018-08-12T18:00:13.639Z,23.16
2018-08-12T18:02:43.474Z,22.98
2018-08-12T18:05:12.314Z,22.71
2018-08-12T18:07:50.406Z,22.52
2018-08-12T18:10:19.507Z,22.45
2018-08-12T18:12:48.340Z,22.52
2018-08-12T18:15:17.454Z,22.55
2018-08-12T18:17:46.082Z,22.23
2018-08-12T18:20:15.034Z,22.01
2018-08-12T18:22:43.719Z,21.98
2018-08-12T18:25:12.803Z,21.85
2018-08-12T18:27:42.293Z,21.84
2018-08-12T18:30:13.266Z,21.62
2018-08-12T18:32:42.381Z,21.56
2018-08-12T18:35:13.532Z,21.45
2018-08-12T18:37:43.232Z,21.33
2018-08-12T18:40:12.918Z,21.29
2018-08-12T18:42:41.921Z,21.26
2018-08-12T18:45:10.861Z,21.22
2018-08-12T18:47:39.478Z,21.14
2018-08-12T18:50:09.506Z,21.09
2018-08-12T18:52:38.409Z,21.02
2018-08-12T18:55:08.936Z,20.95
2018-08-12T18:57:37.925Z,20.74
2018-08-12T19:00:08.932Z,20.71
2018-08-12T19:02:39.018Z,20.79
2018-08-12T19:05:08.987Z,20.59
2018-08-12T19:07:37.658Z,20.53
2018-08-12T19:10:07.778Z,20.54
2018-08-12T19:12:36.713Z,20.44
2018-08-12T19:15:07.631Z,20.30
2018-08-12T19:17:36.925Z,20.12
2018-08-12T19:20:07.111Z,20.11
2018-08-12T19:22:36.290Z,20.04
2018-08-12T19:25:08.826Z,19.96
2018-08-12T19:27:38.727Z,19.95
2018-08-12T19:30:12.205Z,19.86
2018-08-12T19:32:41.122Z,19.78
2018-08-12T19:35:10.874Z,19.69
2018-08-12T19:37:39.648Z,19.51
2018-08-12T19:40:09.620Z,19.49
2018-08-12T19:42:38.539Z,19.34
2018-08-12T19:45:08.424Z,19.19
2018-08-12T19:47:37.199Z,19.13
2018-08-12T19:50:06.472Z,19.16
2018-08-12T19:52:35.859Z,19.09
2018-08-12T19:55:05.704Z,19.05
2018-08-12T19:57:34.503Z,18.91
2018-08-12T20:00:03.645Z,18.87
2018-08-12T20:02:32.495Z,18.89
2018-08-12T20:05:01.952Z,18.80
2018-08-12T20:07:31.888Z,18.69
2018-08-12T20:10:00.588Z,18.66
2018-08-12T20:12:29.517Z,18.57
2018-08-12T20:14:58.295Z,18.59
2018-08-12T20:17:27.548Z,18.52
2018-08-12T20:19:56.344Z,18.55
2018-08-12T20:22:26.565Z,18.52
2018-08-12T20:24:55.427Z,18.33
2018-08-12T20:27:24.158Z,18.31
2018-08-12T20:29:52.996Z,18.24
2018-08-12T20:32:22.091Z,18.32
2018-08-12T20:34:50.859Z,18.29
2018-08-12T20:37:19.665Z,18.23
2018-08-12T20:39:48.512Z,18.17
2018-08-12T20:42:17.453Z,18.15
2018-08-12T20:44:47.525Z,18.09
2018-08-12T20:47:16.327Z,18.03
2018-08-12T20:49:45.293Z,17.98
2018-08-12T20:52:14.132Z,17.92
2018-08-12T20:54:43.262Z,17.91
2018-08-12T20:57:12.637Z,17.84
2018-08-12T20:59:41.703Z,17.83
2018-08-12T21:02:10.814Z,17.85
2018-08-12T21:04:39.552Z,17.83
2018-08-12T21:07:08.652Z,17.71
2018-08-12T21:09:38.294Z,17.69
2018-08-12T21:12:07.432Z,17.76
2018-08-12T21:14:36.173Z,17.74
2018-08-12T21:17:04.927Z,17.70
2018-08-12T21:19:33.809Z,17.61
2018-08-12T21:22:03.927Z,17.61
2018-08-12T21:24:33.228Z,17.56
2018-08-12T21:27:03.054Z,17.51
2018-08-12T21:29:32.123Z,17.50
2018-08-12T21:32:01.002Z,17.36
2018-08-12T21:34:30.436Z,17.38
2018-08-12T21:36:59.756Z,17.35
2018-08-12T21:39:30.420Z,17.28
2018-08-12T21:41:59.592Z,17.22
2018-08-12T21:44:30.067Z,17.14
2018-08-12T21:47:00.665Z,17.18
2018-08-12T21:49:30.116Z,17.15
2018-08-12T21:52:02.078Z,17.01
2018-08-12T21:54:30.917Z,17.01
2018-08-12T21:56:59.556Z,17.00
2018-08-12T21:59:28.309Z,16.93
2018-08-12T22:01:57.059Z,16.89
2018-08-12T22:04:25.774Z,16.86
2018-08-12T22:06:54.864Z,16.83
2018-08-12T22:09:23.497Z,16.71
2018-08-12T22:11:52.261Z,16.63
2018-08-12T22:14:21.705Z,16.60
2018-08-12T22:16:50.337Z,16.63
2018-08-12T22:19:19.237Z,16.54
2018-08-12T22:21:47.932Z,16.41
2018-08-12T22:24:16.591Z,16.53
2018-08-12T22:26:45.321Z,16.37
2018-08-12T22:29:14.084Z,16.33
2018-08-12T22:31:42.821Z,16.30
2018-08-12T22:34:11.740Z,16.32
2018-08-12T22:36:41.371Z,16.23
2018-08-12T22:39:10.896Z,16.22
2018-08-12T22:41:39.727Z,16.18
2018-08-12T22:44:08.848Z,16.12
2018-08-12T22:46:37.763Z,16.15
2018-08-12T22:49:06.977Z,16.04
2018-08-12T22:51:35.993Z,15.97
2018-08-12T22:54:04.960Z,15.98
2018-08-12T22:56:33.552Z,15.97
2018-08-12T22:59:02.431Z,15.99
2018-08-12T23:01:31.349Z,16.00
2018-08-12T23:04:00.320Z,15.94
2018-08-12T23:06:29.086Z,15.93
2018-08-12T23:08:57.718Z,15.93
2018-08-12T23:11:26.540Z,16.02
2018-08-12T23:13:55.236Z,15.87
2018-08-12T23:16:35.121Z,15.84
2018-08-12T23:19:03.916Z,15.95
2018-08-12T23:21:32.559Z,15.87
2018-08-12T23:24:01.421Z,15.82
2018-08-12T23:26:30.208Z,15.77
2018-08-12T23:28:58.855Z,15.77
2018-08-12T23:31:27.630Z,15.77
2018-08-12T23:33:56.782Z,15.79
2018-08-12T23:36:25.611Z,15.67
2018-08-12T23:38:54.469Z,15.71
2018-08-12T23:41:23.396Z,15.62
2018-08-12T23:43:52.086Z,15.68
2018-08-12T23:46:20.931Z,15.61
2018-08-12T23:48:49.532Z,15.68
2018-08-12T23:51:18.299Z,15.58
2018-08-12T23:53:47.410Z,15.53
2018-08-12T23:56:16.088Z,15.59
2018-08-12T23:58:44.874Z,15.48
